sensor_id;sensor_type;location;lat;lon;timestamp;temperature;humidity
3051;DHT22;1535;51.098;6.414;2023-03-31T00:01:05;11.60;99.90
3051;DHT22;1535;51.098;6.414;2023-03-31T00:03:32;11.60;99.90
3051;DHT22;1535;51.098;6.414;2023-03-31T00:06:04;11.50;99.90
3051;DHT22;1535;51.098;6.414;2023-03-31T00:08:31;11.50;99.90
3051;DHT22;1535;51.098;6.414;2023-03-31T00:11:01;11.50;99.90
3051;DHT22;1535;51.098;6.414;2023-03-31T00:13:29;11.50;99.90
3051;DHT22;1535;51.098;6.414;2023-03-31T00:15:59;11.50;99.90
3051;DHT22;1535;51.098;6.414;2023-03-31T00:18:26;11.50;99.90
3051;DHT22;1535;51.098;6.414;2023-03-31T00:20:58;11.30;99.90
3051;DHT22;1535;51.098;6.414;2023-03-31T00:23:27;11.30;99.90
3051;DHT22;1535;51.098;6.414;2023-03-31T00:25:54;11.10;99.90
3051;DHT22;1535;51.098;6.414;2023-03-31T00:28:21;11.10;99.90
3051;DHT22;1535;51.098;6.414;2023-03-31T00:30:48;11.00;99.90
3051;DHT22;1535;51.098;6.414;2023-03-31T00:33:18;11.00;99.90
3051;DHT22;1535;51.098;6.414;2023-03-31T00:35:50;11.00;99.90
3051;DHT22;1535;51.098;6.414;2023-03-31T00:38:17;11.00;99.90
3051;DHT22;1535;51.098;6.414;2023-03-31T00:40:46;11.00;99.90
3051;DHT22;1535;51.098;6.414;2023-03-31T00:43:26;11.00;99.90
3051;DHT22;1535;51.098;6.414;2023-03-31T00:46:01;10.90;99.90
3051;DHT22;1535;51.098;6.414;2023-03-31T00:48:31;10.90;99.90
3051;DHT22;1535;51.098;6.414;2023-03-31T00:51:03;10.90;99.90
3051;DHT22;1535;51.098;6.414;2023-03-31T00:53:32;10.90;99.90
3051;DHT22;1535;51.098;6.414;2023-03-31T00:56:04;10.90;99.90
3051;DHT22;1535;51.098;6.414;2023-03-31T00:58:32;10.90;99.90
3051;DHT22;1535;51.098;6.414;2023-03-31T01:01:00;10.90;99.90
3051;DHT22;1535;51.098;6.414;2023-03-31T01:03:31;10.90;99.90
3051;DHT22;1535;51.098;6.414;2023-03-31T01:06:00;10.90;99.90
3051;DHT22;1535;51.098;6.414;2023-03-31T01:08:30;10.90;99.90
3051;DHT22;1535;51.098;6.414;2023-03-31T01:10:59;10.90;99.90
3051;DHT22;1535;51.098;6.414;2023-03-31T01:13:27;10.90;99.90
3051;DHT22;1535;51.098;6.414;2023-03-31T01:15:55;10.80;99.90
3051;DHT22;1535;51.098;6.414;2023-03-31T01:18:23;10.80;99.90
3051;DHT22;1535;51.098;6.414;2023-03-31T01:21:12;10.80;99.90
3051;DHT22;1535;51.098;6.414;2023-03-31T01:24:12;10.80;99.90
3051;DHT22;1535;51.098;6.414;2023-03-31T01:26:55;10.90;99.90
3051;DHT22;1535;51.098;6.414;2023-03-31T01:29:50;10.90;99.90
3051;DHT22;1535;51.098;6.414;2023-03-31T01:32:49;10.90;99.90
3051;DHT22;1535;51.098;6.414;2023-03-31T01:35:50;10.90;99.90
3051;DHT22;1535;51.098;6.414;2023-03-31T01:41:41;10.90;99.90
3051;DHT22;1535;51.098;6.414;2023-03-31T01:44:16;11.00;99.90
3051;DHT22;1535;51.098;6.414;2023-03-31T01:46:52;11.00;99.90
3051;DHT22;1535;51.098;6.414;2023-03-31T01:49:24;11.00;99.90
3051;DHT22;1535;51.098;6.414;2023-03-31T01:51:58;11.00;99.90
3051;DHT22;1535;51.098;6.414;2023-03-31T01:54:31;11.00;99.90
3051;DHT22;1535;51.098;6.414;2023-03-31T01:57:05;11.00;99.90
3051;DHT22;1535;51.098;6.414;2023-03-31T01:59:39;11.00;99.90
3051;DHT22;1535;51.098;6.414;2023-03-31T02:02:09;11.00;99.90
3051;DHT22;1535;51.098;6.414;2023-03-31T02:04:41;11.00;99.90
3051;DHT22;1535;51.098;6.414;2023-03-31T02:07:11;11.00;99.90
3051;DHT22;1535;51.098;6.414;2023-03-31T02:09:44;11.00;99.90
3051;DHT22;1535;51.098;6.414;2023-03-31T02:12:14;11.00;99.90
3051;DHT22;1535;51.098;6.414;2023-03-31T02:14:44;11.00;99.90
3051;DHT22;1535;51.098;6.414;2023-03-31T02:17:16;11.00;99.90
3051;DHT22;1535;51.098;6.414;2023-03-31T02:19:47;11.00;99.90
3051;DHT22;1535;51.098;6.414;2023-03-31T02:22:17;11.00;99.90
3051;DHT22;1535;51.098;6.414;2023-03-31T02:24:46;11.00;99.90
3051;DHT22;1535;51.098;6.414;2023-03-31T02:27:18;11.00;99.90
3051;DHT22;1535;51.098;6.414;2023-03-31T02:29:46;11.00;99.90
3051;DHT22;1535;51.098;6.414;2023-03-31T02:32:17;11.00;99.90
3051;DHT22;1535;51.098;6.414;2023-03-31T02:34:46;11.00;99.90
3051;DHT22;1535;51.098;6.414;2023-03-31T02:37:13;10.90;99.90
3051;DHT22;1535;51.098;6.414;2023-03-31T02:39:42;10.90;99.90
3051;DHT22;1535;51.098;6.414;2023-03-31T02:42:11;10.90;99.90
3051;DHT22;1535;51.098;6.414;2023-03-31T02:44:40;10.90;99.90
3051;DHT22;1535;51.098;6.414;2023-03-31T02:47:10;10.90;99.90
3051;DHT22;1535;51.098;6.414;2023-03-31T02:49:39;10.90;99.90
3051;DHT22;1535;51.098;6.414;2023-03-31T02:52:40;10.90;99.90
3051;DHT22;1535;51.098;6.414;2023-03-31T02:55:33;10.80;99.90
3051;DHT22;1535;51.098;6.414;2023-03-31T02:58:17;10.80;99.90
3051;DHT22;1535;51.098;6.414;2023-03-31T03:03:45;10.80;99.90
3051;DHT22;1535;51.098;6.414;2023-03-31T03:06:30;10.80;99.90
3051;DHT22;1535;51.098;6.414;2023-03-31T03:09:05;10.70;99.90
3051;DHT22;1535;51.098;6.414;2023-03-31T03:11:39;10.70;99.90
3051;DHT22;1535;51.098;6.414;2023-03-31T03:14:13;10.60;99.90
3051;DHT22;1535;51.098;6.414;2023-03-31T03:16:45;10.60;99.90
3051;DHT22;1535;51.098;6.414;2023-03-31T03:19:18;10.70;99.90
3051;DHT22;1535;51.098;6.414;2023-03-31T03:21:45;10.60;99.90
3051;DHT22;1535;51.098;6.414;2023-03-31T03:24:13;10.60;99.90
3051;DHT22;1535;51.098;6.414;2023-03-31T03:26:41;10.70;99.90
3051;DHT22;1535;51.098;6.414;2023-03-31T03:29:10;10.70;99.90
3051;DHT22;1535;51.098;6.414;2023-03-31T03:31:37;10.80;99.90
3051;DHT22;1535;51.098;6.414;2023-03-31T03:34:06;10.80;99.90
3051;DHT22;1535;51.098;6.414;2023-03-31T03:36:34;10.70;99.90
3051;DHT22;1535;51.098;6.414;2023-03-31T03:39:01;10.80;99.90
3051;DHT22;1535;51.098;6.414;2023-03-31T03:41:28;10.70;99.90
3051;DHT22;1535;51.098;6.414;2023-03-31T03:43:56;10.60;99.90
3051;DHT22;1535;51.098;6.414;2023-03-31T03:46:23;10.60;99.90
3051;DHT22;1535;51.098;6.414;2023-03-31T03:48:50;10.50;99.90
3051;DHT22;1535;51.098;6.414;2023-03-31T03:51:20;10.50;99.90
3051;DHT22;1535;51.098;6.414;2023-03-31T03:53:47;10.50;99.90
3051;DHT22;1535;51.098;6.414;2023-03-31T03:56:13;10.50;99.90
3051;DHT22;1535;51.098;6.414;2023-03-31T03:58:40;10.60;99.90
3051;DHT22;1535;51.098;6.414;2023-03-31T04:01:07;10.50;99.90
3051;DHT22;1535;51.098;6.414;2023-03-31T04:03:34;10.60;99.90
3051;DHT22;1535;51.098;6.414;2023-03-31T04:06:01;10.50;99.90
3051;DHT22;1535;51.098;6.414;2023-03-31T04:08:30;10.50;99.90
3051;DHT22;1535;51.098;6.414;2023-03-31T04:10:56;10.50;99.90
3051;DHT22;1535;51.098;6.414;2023-03-31T04:13:23;10.50;99.90
3051;DHT22;1535;51.098;6.414;2023-03-31T04:15:50;10.40;99.90
3051;DHT22;1535;51.098;6.414;2023-03-31T04:18:17;10.50;99.90
3051;DHT22;1535;51.098;6.414;2023-03-31T04:20:48;10.40;99.90
3051;DHT22;1535;51.098;6.414;2023-03-31T04:23:29;10.40;99.90
3051;DHT22;1535;51.098;6.414;2023-03-31T04:25:56;10.40;99.90
3051;DHT22;1535;51.098;6.414;2023-03-31T04:28:23;10.40;99.90
3051;DHT22;1535;51.098;6.414;2023-03-31T04:30:51;10.40;99.90
3051;DHT22;1535;51.098;6.414;2023-03-31T04:33:23;10.40;99.90
3051;DHT22;1535;51.098;6.414;2023-03-31T04:35:50;10.30;99.90
3051;DHT22;1535;51.098;6.414;2023-03-31T04:38:18;10.30;99.90
3051;DHT22;1535;51.098;6.414;2023-03-31T04:40:47;10.20;99.90
3051;DHT22;1535;51.098;6.414;2023-03-31T04:43:15;10.20;99.90
3051;DHT22;1535;51.098;6.414;2023-03-31T04:45:42;10.10;99.90
3051;DHT22;1535;51.098;6.414;2023-03-31T04:48:09;10.10;99.90
3051;DHT22;1535;51.098;6.414;2023-03-31T04:50:37;10.10;99.90
3051;DHT22;1535;51.098;6.414;2023-03-31T04:53:04;10.10;99.90
3051;DHT22;1535;51.098;6.414;2023-03-31T04:55:32;10.10;99.90
3051;DHT22;1535;51.098;6.414;2023-03-31T04:58:00;10.10;99.90
3051;DHT22;1535;51.098;6.414;2023-03-31T05:00:28;10.20;99.90
3051;DHT22;1535;51.098;6.414;2023-03-31T05:02:55;10.20;99.90
3051;DHT22;1535;51.098;6.414;2023-03-31T05:05:22;10.20;99.90
3051;DHT22;1535;51.098;6.414;2023-03-31T05:07:49;10.30;99.90
3051;DHT22;1535;51.098;6.414;2023-03-31T05:10:16;10.30;99.90
3051;DHT22;1535;51.098;6.414;2023-03-31T05:12:43;10.40;99.90
3051;DHT22;1535;51.098;6.414;2023-03-31T05:15:12;10.50;99.90
3051;DHT22;1535;51.098;6.414;2023-03-31T05:17:39;10.50;99.90
3051;DHT22;1535;51.098;6.414;2023-03-31T05:20:06;10.50;99.90
3051;DHT22;1535;51.098;6.414;2023-03-31T05:22:36;10.50;99.90
3051;DHT22;1535;51.098;6.414;2023-03-31T05:25:04;10.40;99.90
3051;DHT22;1535;51.098;6.414;2023-03-31T05:27:32;10.40;99.90
3051;DHT22;1535;51.098;6.414;2023-03-31T05:30:00;10.40;99.90
3051;DHT22;1535;51.098;6.414;2023-03-31T05:32:30;10.30;99.90
3051;DHT22;1535;51.098;6.414;2023-03-31T05:34:57;10.30;99.90
3051;DHT22;1535;51.098;6.414;2023-03-31T05:37:24;10.30;99.90
3051;DHT22;1535;51.098;6.414;2023-03-31T05:39:51;10.40;99.90
3051;DHT22;1535;51.098;6.414;2023-03-31T05:42:19;10.40;99.90
3051;DHT22;1535;51.098;6.414;2023-03-31T05:44:46;10.40;99.90
3051;DHT22;1535;51.098;6.414;2023-03-31T05:47:13;10.40;99.90
3051;DHT22;1535;51.098;6.414;2023-03-31T05:49:41;10.40;99.90
3051;DHT22;1535;51.098;6.414;2023-03-31T05:52:09;10.40;99.90
3051;DHT22;1535;51.098;6.414;2023-03-31T05:54:36;10.30;99.90
3051;DHT22;1535;51.098;6.414;2023-03-31T05:57:04;10.30;99.90
3051;DHT22;1535;51.098;6.414;2023-03-31T05:59:31;10.40;99.90
3051;DHT22;1535;51.098;6.414;2023-03-31T06:02:00;10.40;99.90
3051;DHT22;1535;51.098;6.414;2023-03-31T06:04:27;10.40;99.90
3051;DHT22;1535;51.098;6.414;2023-03-31T06:06:57;10.40;99.90
3051;DHT22;1535;51.098;6.414;2023-03-31T06:09:25;10.40;99.90
3051;DHT22;1535;51.098;6.414;2023-03-31T06:11:54;10.40;99.90
3051;DHT22;1535;51.098;6.414;2023-03-31T06:14:21;10.40;99.90
3051;DHT22;1535;51.098;6.414;2023-03-31T06:16:48;10.40;99.90
3051;DHT22;1535;51.098;6.414;2023-03-31T06:19:16;10.40;99.90
3051;DHT22;1535;51.098;6.414;2023-03-31T06:21:43;10.40;99.90
3051;DHT22;1535;51.098;6.414;2023-03-31T06:24:11;10.40;99.90
3051;DHT22;1535;51.098;6.414;2023-03-31T06:26:38;10.40;99.90
3051;DHT22;1535;51.098;6.414;2023-03-31T06:29:05;10.40;99.90
3051;DHT22;1535;51.098;6.414;2023-03-31T06:31:32;10.40;99.90
3051;DHT22;1535;51.098;6.414;2023-03-31T06:33:59;10.40;99.90
3051;DHT22;1535;51.098;6.414;2023-03-31T06:36:26;10.40;99.90
3051;DHT22;1535;51.098;6.414;2023-03-31T06:38:53;10.40;99.90
3051;DHT22;1535;51.098;6.414;2023-03-31T06:41:21;10.40;99.90
3051;DHT22;1535;51.098;6.414;2023-03-31T06:43:49;10.50;99.90
3051;DHT22;1535;51.098;6.414;2023-03-31T06:46:16;10.60;99.90
3051;DHT22;1535;51.098;6.414;2023-03-31T06:48:44;10.70;99.90
3051;DHT22;1535;51.098;6.414;2023-03-31T06:51:11;10.80;99.90
3051;DHT22;1535;51.098;6.414;2023-03-31T06:53:38;10.90;99.90
3051;DHT22;1535;51.098;6.414;2023-03-31T06:56:05;11.00;99.90
3051;DHT22;1535;51.098;6.414;2023-03-31T06:58:33;11.20;99.90
3051;DHT22;1535;51.098;6.414;2023-03-31T07:01:02;11.30;99.90
3051;DHT22;1535;51.098;6.414;2023-03-31T07:03:29;11.30;99.90
3051;DHT22;1535;51.098;6.414;2023-03-31T07:05:56;11.50;99.90
3051;DHT22;1535;51.098;6.414;2023-03-31T07:08:23;11.50;99.90
3051;DHT22;1535;51.098;6.414;2023-03-31T07:10:54;11.70;99.90
3051;DHT22;1535;51.098;6.414;2023-03-31T07:13:23;11.80;99.90
3051;DHT22;1535;51.098;6.414;2023-03-31T07:15:53;11.90;99.90
3051;DHT22;1535;51.098;6.414;2023-03-31T07:18:20;12.10;99.90
3051;DHT22;1535;51.098;6.414;2023-03-31T07:20:51;12.20;99.90
3051;DHT22;1535;51.098;6.414;2023-03-31T07:23:18;12.40;99.90
3051;DHT22;1535;51.098;6.414;2023-03-31T07:25:46;12.70;99.90
3051;DHT22;1535;51.098;6.414;2023-03-31T07:28:14;12.90;99.90
3051;DHT22;1535;51.098;6.414;2023-03-31T07:30:41;13.10;99.90
3051;DHT22;1535;51.098;6.414;2023-03-31T07:33:09;13.10;99.90
3051;DHT22;1535;51.098;6.414;2023-03-31T07:35:38;13.10;99.90
3051;DHT22;1535;51.098;6.414;2023-03-31T07:38:07;12.90;99.90
3051;DHT22;1535;51.098;6.414;2023-03-31T07:40:34;12.90;99.90
3051;DHT22;1535;51.098;6.414;2023-03-31T07:43:00;13.00;99.90
3051;DHT22;1535;51.098;6.414;2023-03-31T07:45:28;12.90;99.90
3051;DHT22;1535;51.098;6.414;2023-03-31T07:47:56;12.80;99.90
3051;DHT22;1535;51.098;6.414;2023-03-31T07:50:24;12.70;99.90
3051;DHT22;1535;51.098;6.414;2023-03-31T07:52:51;12.70;99.90
3051;DHT22;1535;51.098;6.414;2023-03-31T07:55:18;12.60;99.90
3051;DHT22;1535;51.098;6.414;2023-03-31T07:57:45;12.50;99.90
3051;DHT22;1535;51.098;6.414;2023-03-31T08:00:14;12.40;99.90
3051;DHT22;1535;51.098;6.414;2023-03-31T08:02:41;12.50;99.90
3051;DHT22;1535;51.098;6.414;2023-03-31T08:05:13;12.60;99.90
3051;DHT22;1535;51.098;6.414;2023-03-31T08:07:44;12.70;99.90
3051;DHT22;1535;51.098;6.414;2023-03-31T08:10:14;12.90;99.90
3051;DHT22;1535;51.098;6.414;2023-03-31T08:12:41;13.20;99.90
3051;DHT22;1535;51.098;6.414;2023-03-31T08:15:08;13.30;99.90
3051;DHT22;1535;51.098;6.414;2023-03-31T08:17:37;13.50;99.90
3051;DHT22;1535;51.098;6.414;2023-03-31T08:20:04;13.60;99.90
3051;DHT22;1535;51.098;6.414;2023-03-31T08:22:33;13.70;99.90
3051;DHT22;1535;51.098;6.414;2023-03-31T08:25:02;13.80;99.90
3051;DHT22;1535;51.098;6.414;2023-03-31T08:27:32;14.00;99.90
3051;DHT22;1535;51.098;6.414;2023-03-31T08:29:59;14.20;99.90
3051;DHT22;1535;51.098;6.414;2023-03-31T08:32:27;14.40;99.90
3051;DHT22;1535;51.098;6.414;2023-03-31T08:34:55;14.40;99.90
3051;DHT22;1535;51.098;6.414;2023-03-31T08:37:21;14.30;99.90
3051;DHT22;1535;51.098;6.414;2023-03-31T08:39:48;14.40;99.90
3051;DHT22;1535;51.098;6.414;2023-03-31T08:42:20;14.50;99.90
3051;DHT22;1535;51.098;6.414;2023-03-31T08:44:56;14.60;99.90
3051;DHT22;1535;51.098;6.414;2023-03-31T08:47:25;14.60;99.90
3051;DHT22;1535;51.098;6.414;2023-03-31T08:49:56;14.60;99.90
3051;DHT22;1535;51.098;6.414;2023-03-31T08:52:26;14.50;99.90
3051;DHT22;1535;51.098;6.414;2023-03-31T08:54:57;14.30;99.90
3051;DHT22;1535;51.098;6.414;2023-03-31T08:57:30;14.10;99.90
3051;DHT22;1535;51.098;6.414;2023-03-31T08:59:59;14.20;99.90
3051;DHT22;1535;51.098;6.414;2023-03-31T09:02:36;14.20;99.90
3051;DHT22;1535;51.098;6.414;2023-03-31T09:05:39;14.40;99.90
3051;DHT22;1535;51.098;6.414;2023-03-31T09:08:13;14.60;99.90
3051;DHT22;1535;51.098;6.414;2023-03-31T09:10:50;14.70;99.90
3051;DHT22;1535;51.098;6.414;2023-03-31T09:13:41;14.90;99.90
3051;DHT22;1535;51.098;6.414;2023-03-31T09:16:13;14.80;99.90
3051;DHT22;1535;51.098;6.414;2023-03-31T09:18:42;15.00;99.90
3051;DHT22;1535;51.098;6.414;2023-03-31T09:21:16;15.20;99.90
3051;DHT22;1535;51.098;6.414;2023-03-31T09:23:49;15.00;99.90
3051;DHT22;1535;51.098;6.414;2023-03-31T09:26:24;14.90;99.90
3051;DHT22;1535;51.098;6.414;2023-03-31T09:28:57;14.80;99.90
3051;DHT22;1535;51.098;6.414;2023-03-31T09:31:25;14.30;99.90
3051;DHT22;1535;51.098;6.414;2023-03-31T09:33:56;13.40;99.90
3051;DHT22;1535;51.098;6.414;2023-03-31T09:36:25;12.90;99.90
3051;DHT22;1535;51.098;6.414;2023-03-31T09:38:53;12.50;99.90
3051;DHT22;1535;51.098;6.414;2023-03-31T09:41:20;12.30;99.90
3051;DHT22;1535;51.098;6.414;2023-03-31T09:43:47;12.40;99.90
3051;DHT22;1535;51.098;6.414;2023-03-31T09:46:21;12.60;99.90
3051;DHT22;1535;51.098;6.414;2023-03-31T09:48:54;12.70;99.90
3051;DHT22;1535;51.098;6.414;2023-03-31T09:51:26;12.80;99.90
3051;DHT22;1535;51.098;6.414;2023-03-31T09:53:59;12.90;99.90
3051;DHT22;1535;51.098;6.414;2023-03-31T09:56:47;13.20;99.90
3051;DHT22;1535;51.098;6.414;2023-03-31T09:59:19;13.20;99.90
3051;DHT22;1535;51.098;6.414;2023-03-31T10:01:49;13.40;99.90
3051;DHT22;1535;51.098;6.414;2023-03-31T10:04:21;13.80;99.90
3051;DHT22;1535;51.098;6.414;2023-03-31T10:06:48;14.00;99.90
3051;DHT22;1535;51.098;6.414;2023-03-31T10:09:18;14.40;99.90
3051;DHT22;1535;51.098;6.414;2023-03-31T10:11:54;14.50;99.90
3051;DHT22;1535;51.098;6.414;2023-03-31T10:14:34;14.40;99.90
3051;DHT22;1535;51.098;6.414;2023-03-31T10:17:05;14.40;99.90
3051;DHT22;1535;51.098;6.414;2023-03-31T10:19:34;14.70;99.90
3051;DHT22;1535;51.098;6.414;2023-03-31T10:22:04;14.90;99.90
3051;DHT22;1535;51.098;6.414;2023-03-31T10:24:39;15.40;99.90
3051;DHT22;1535;51.098;6.414;2023-03-31T10:27:15;15.40;99.90
3051;DHT22;1535;51.098;6.414;2023-03-31T10:29:44;15.00;99.90
3051;DHT22;1535;51.098;6.414;2023-03-31T10:32:19;13.30;99.90
3051;DHT22;1535;51.098;6.414;2023-03-31T10:34:49;11.80;99.90
3051;DHT22;1535;51.098;6.414;2023-03-31T10:37:17;11.40;99.90
3051;DHT22;1535;51.098;6.414;2023-03-31T10:39:45;11.30;99.90
3051;DHT22;1535;51.098;6.414;2023-03-31T10:42:19;11.40;99.90
3051;DHT22;1535;51.098;6.414;2023-03-31T10:44:47;11.50;99.90
3051;DHT22;1535;51.098;6.414;2023-03-31T10:47:20;11.60;99.90
3051;DHT22;1535;51.098;6.414;2023-03-31T10:49:49;11.80;99.90
3051;DHT22;1535;51.098;6.414;2023-03-31T10:52:19;12.00;99.90
3051;DHT22;1535;51.098;6.414;2023-03-31T10:54:47;12.10;99.90
3051;DHT22;1535;51.098;6.414;2023-03-31T10:57:15;12.10;99.90
3051;DHT22;1535;51.098;6.414;2023-03-31T10:59:54;12.20;99.90
3051;DHT22;1535;51.098;6.414;2023-03-31T11:02:55;12.40;99.90
3051;DHT22;1535;51.098;6.414;2023-03-31T11:05:27;12.60;99.90
3051;DHT22;1535;51.098;6.414;2023-03-31T11:08:02;12.70;99.90
3051;DHT22;1535;51.098;6.414;2023-03-31T11:10:40;12.90;99.90
3051;DHT22;1535;51.098;6.414;2023-03-31T11:13:15;13.10;99.90
3051;DHT22;1535;51.098;6.414;2023-03-31T11:15:51;13.40;99.90
3051;DHT22;1535;51.098;6.414;2023-03-31T11:18:38;13.60;99.90
3051;DHT22;1535;51.098;6.414;2023-03-31T11:21:19;13.80;99.90
3051;DHT22;1535;51.098;6.414;2023-03-31T11:23:54;14.20;99.90
3051;DHT22;1535;51.098;6.414;2023-03-31T11:26:34;14.30;99.90
3051;DHT22;1535;51.098;6.414;2023-03-31T11:29:14;14.60;99.90
3051;DHT22;1535;51.098;6.414;2023-03-31T11:31:51;14.70;99.90
3051;DHT22;1535;51.098;6.414;2023-03-31T11:34:40;14.90;99.90
3051;DHT22;1535;51.098;6.414;2023-03-31T11:37:24;15.00;99.90
3051;DHT22;1535;51.098;6.414;2023-03-31T11:40:08;15.20;99.90
3051;DHT22;1535;51.098;6.414;2023-03-31T11:42:43;15.50;99.90
3051;DHT22;1535;51.098;6.414;2023-03-31T11:45:15;16.00;99.90
3051;DHT22;1535;51.098;6.414;2023-03-31T11:47:47;16.50;99.90
3051;DHT22;1535;51.098;6.414;2023-03-31T11:50:19;15.90;99.90
3051;DHT22;1535;51.098;6.414;2023-03-31T11:52:53;15.90;99.90
3051;DHT22;1535;51.098;6.414;2023-03-31T11:55:25;15.40;99.90
3051;DHT22;1535;51.098;6.414;2023-03-31T11:57:58;15.00;99.90
3051;DHT22;1535;51.098;6.414;2023-03-31T12:00:30;14.70;99.90
3051;DHT22;1535;51.098;6.414;2023-03-31T12:03:02;14.80;99.90
3051;DHT22;1535;51.098;6.414;2023-03-31T12:05:32;15.10;99.90
3051;DHT22;1535;51.098;6.414;2023-03-31T12:08:04;15.50;99.90
3051;DHT22;1535;51.098;6.414;2023-03-31T12:10:35;15.70;99.90
3051;DHT22;1535;51.098;6.414;2023-03-31T12:13:08;15.70;99.90
3051;DHT22;1535;51.098;6.414;2023-03-31T12:15:43;15.50;99.90
3051;DHT22;1535;51.098;6.414;2023-03-31T12:18:13;15.40;99.90
3051;DHT22;1535;51.098;6.414;2023-03-31T12:20:46;15.70;99.90
3051;DHT22;1535;51.098;6.414;2023-03-31T12:23:17;15.90;99.90
3051;DHT22;1535;51.098;6.414;2023-03-31T12:25:49;16.40;99.90
3051;DHT22;1535;51.098;6.414;2023-03-31T12:28:18;16.60;99.90
3051;DHT22;1535;51.098;6.414;2023-03-31T12:30:46;16.60;99.90
3051;DHT22;1535;51.098;6.414;2023-03-31T12:33:18;16.70;99.90
3051;DHT22;1535;51.098;6.414;2023-03-31T12:35:58;16.70;99.90
3051;DHT22;1535;51.098;6.414;2023-03-31T12:38:40;16.20;99.90
3051;DHT22;1535;51.098;6.414;2023-03-31T12:41:13;15.90;99.90
3051;DHT22;1535;51.098;6.414;2023-03-31T12:43:59;16.00;99.90
3051;DHT22;1535;51.098;6.414;2023-03-31T12:46:38;15.90;99.90
3051;DHT22;1535;51.098;6.414;2023-03-31T12:49:15;16.10;99.90
3051;DHT22;1535;51.098;6.414;2023-03-31T12:51:57;16.50;99.90
3051;DHT22;1535;51.098;6.414;2023-03-31T12:54:41;16.70;99.90
3051;DHT22;1535;51.098;6.414;2023-03-31T12:57:16;17.10;99.90
3051;DHT22;1535;51.098;6.414;2023-03-31T12:59:45;17.50;99.90
3051;DHT22;1535;51.098;6.414;2023-03-31T13:02:32;17.70;99.90
3051;DHT22;1535;51.098;6.414;2023-03-31T13:04:59;18.70;99.90
3051;DHT22;1535;51.098;6.414;2023-03-31T13:07:48;18.70;99.90
3051;DHT22;1535;51.098;6.414;2023-03-31T13:10:26;18.40;99.90
3051;DHT22;1535;51.098;6.414;2023-03-31T13:13:02;17.70;99.90
3051;DHT22;1535;51.098;6.414;2023-03-31T13:15:31;17.90;99.90
3051;DHT22;1535;51.098;6.414;2023-03-31T13:18:00;18.40;99.90
3051;DHT22;1535;51.098;6.414;2023-03-31T13:20:32;17.90;99.90
3051;DHT22;1535;51.098;6.414;2023-03-31T13:23:13;17.60;99.90
3051;DHT22;1535;51.098;6.414;2023-03-31T13:25:47;17.90;99.90
3051;DHT22;1535;51.098;6.414;2023-03-31T13:28:25;17.20;99.90
3051;DHT22;1535;51.098;6.414;2023-03-31T13:30:55;16.90;99.90
3051;DHT22;1535;51.098;6.414;2023-03-31T13:33:34;17.00;99.90
3051;DHT22;1535;51.098;6.414;2023-03-31T13:39:25;16.60;99.90
3051;DHT22;1535;51.098;6.414;2023-03-31T13:42:00;16.80;99.90
3051;DHT22;1535;51.098;6.414;2023-03-31T13:44:50;16.60;99.90
3051;DHT22;1535;51.098;6.414;2023-03-31T13:50:43;16.90;99.90
3051;DHT22;1535;51.098;6.414;2023-03-31T13:53:29;17.30;99.90
3051;DHT22;1535;51.098;6.414;2023-03-31T13:56:11;17.30;99.90
3051;DHT22;1535;51.098;6.414;2023-03-31T13:59:11;16.90;99.90
3051;DHT22;1535;51.098;6.414;2023-03-31T14:02:02;17.00;99.90
3051;DHT22;1535;51.098;6.414;2023-03-31T14:05:06;17.10;99.90
3051;DHT22;1535;51.098;6.414;2023-03-31T14:07:39;16.60;99.90
3051;DHT22;1535;51.098;6.414;2023-03-31T14:10:22;16.50;99.90
3051;DHT22;1535;51.098;6.414;2023-03-31T14:12:50;16.60;99.90
3051;DHT22;1535;51.098;6.414;2023-03-31T14:15:19;17.00;99.90
3051;DHT22;1535;51.098;6.414;2023-03-31T14:17:46;17.00;99.90
3051;DHT22;1535;51.098;6.414;2023-03-31T14:20:27;17.00;99.90
3051;DHT22;1535;51.098;6.414;2023-03-31T14:23:05;16.50;99.90
3051;DHT22;1535;51.098;6.414;2023-03-31T14:25:43;15.90;99.90
3051;DHT22;1535;51.098;6.414;2023-03-31T14:28:32;15.40;99.90
3051;DHT22;1535;51.098;6.414;2023-03-31T14:31:10;14.50;99.90
3051;DHT22;1535;51.098;6.414;2023-03-31T14:33:45;13.60;99.90
3051;DHT22;1535;51.098;6.414;2023-03-31T14:36:18;13.00;99.90
3051;DHT22;1535;51.098;6.414;2023-03-31T14:38:46;12.70;99.90
3051;DHT22;1535;51.098;6.414;2023-03-31T14:41:17;12.40;99.90
3051;DHT22;1535;51.098;6.414;2023-03-31T14:43:48;12.20;99.90
3051;DHT22;1535;51.098;6.414;2023-03-31T14:46:19;11.90;99.90
3051;DHT22;1535;51.098;6.414;2023-03-31T14:48:48;11.80;99.90
3051;DHT22;1535;51.098;6.414;2023-03-31T14:51:22;11.60;99.90
3051;DHT22;1535;51.098;6.414;2023-03-31T14:53:56;11.40;99.90
3051;DHT22;1535;51.098;6.414;2023-03-31T14:56:28;11.30;99.90
3051;DHT22;1535;51.098;6.414;2023-03-31T14:59:00;11.40;99.90
3051;DHT22;1535;51.098;6.414;2023-03-31T15:01:30;11.50;99.90
3051;DHT22;1535;51.098;6.414;2023-03-31T15:04:01;11.70;99.90
3051;DHT22;1535;51.098;6.414;2023-03-31T15:06:31;12.30;99.90
3051;DHT22;1535;51.098;6.414;2023-03-31T15:09:01;12.20;99.90
3051;DHT22;1535;51.098;6.414;2023-03-31T15:11:29;11.90;99.90
3051;DHT22;1535;51.098;6.414;2023-03-31T15:13:59;12.00;99.90
3051;DHT22;1535;51.098;6.414;2023-03-31T15:16:32;11.90;99.90
3051;DHT22;1535;51.098;6.414;2023-03-31T15:19:04;11.90;99.90
3051;DHT22;1535;51.098;6.414;2023-03-31T15:21:35;12.00;99.90
3051;DHT22;1535;51.098;6.414;2023-03-31T15:24:03;11.90;99.90
3051;DHT22;1535;51.098;6.414;2023-03-31T15:26:34;12.10;99.90
3051;DHT22;1535;51.098;6.414;2023-03-31T15:29:05;12.00;99.90
3051;DHT22;1535;51.098;6.414;2023-03-31T15:31:34;12.00;99.90
3051;DHT22;1535;51.098;6.414;2023-03-31T15:34:13;11.90;99.90
3051;DHT22;1535;51.098;6.414;2023-03-31T15:36:40;11.90;99.90
3051;DHT22;1535;51.098;6.414;2023-03-31T15:39:06;11.90;99.90
3051;DHT22;1535;51.098;6.414;2023-03-31T15:41:34;11.90;99.90
3051;DHT22;1535;51.098;6.414;2023-03-31T15:44:05;11.90;99.90
3051;DHT22;1535;51.098;6.414;2023-03-31T15:46:49;12.10;99.90
3051;DHT22;1535;51.098;6.414;2023-03-31T15:49:23;12.30;99.90
3051;DHT22;1535;51.098;6.414;2023-03-31T15:51:53;12.40;99.90
3051;DHT22;1535;51.098;6.414;2023-03-31T15:54:35;12.50;99.90
3051;DHT22;1535;51.098;6.414;2023-03-31T15:57:04;12.70;99.90
3051;DHT22;1535;51.098;6.414;2023-03-31T15:59:43;12.70;99.90
3051;DHT22;1535;51.098;6.414;2023-03-31T16:02:13;12.60;99.90
3051;DHT22;1535;51.098;6.414;2023-03-31T16:04:40;12.50;99.90
3051;DHT22;1535;51.098;6.414;2023-03-31T16:07:14;12.40;99.90
3051;DHT22;1535;51.098;6.414;2023-03-31T16:09:44;12.50;99.90
3051;DHT22;1535;51.098;6.414;2023-03-31T16:12:16;12.40;99.90
3051;DHT22;1535;51.098;6.414;2023-03-31T16:14:48;12.50;99.90
3051;DHT22;1535;51.098;6.414;2023-03-31T16:17:24;12.60;99.90
3051;DHT22;1535;51.098;6.414;2023-03-31T16:19:55;12.60;99.90
3051;DHT22;1535;51.098;6.414;2023-03-31T16:22:25;12.60;99.90
3051;DHT22;1535;51.098;6.414;2023-03-31T16:24:52;12.50;99.90
3051;DHT22;1535;51.098;6.414;2023-03-31T16:27:21;12.50;99.90
3051;DHT22;1535;51.098;6.414;2023-03-31T16:30:05;12.60;99.90
3051;DHT22;1535;51.098;6.414;2023-03-31T16:32:33;12.40;99.90
3051;DHT22;1535;51.098;6.414;2023-03-31T16:35:01;12.30;99.90
3051;DHT22;1535;51.098;6.414;2023-03-31T16:37:28;12.30;99.90
3051;DHT22;1535;51.098;6.414;2023-03-31T16:39:55;12.30;99.90
3051;DHT22;1535;51.098;6.414;2023-03-31T16:42:22;12.20;99.90
3051;DHT22;1535;51.098;6.414;2023-03-31T16:44:50;12.20;99.90